Terminal Aerodrome Forecast
Issued by NWS Corpus Christi, TX

Home | Current Version | Previous Version | Text Only | Print | Product List | Glossary On
Versions: 1 2 3 4 5 6 7 8 9 10 11 12 13 14 15 16 17
000
FTUS44 KCRP 200500
TAFCRP
TAF
KCRP 200529Z 2006/2106 01012KT P6SM OVC015
     FM201600 02012KT P6SM BKN018 BKN080
     FM210300 05006KT P6SM SCT020 BKN080=

USA.gov is the U.S. government's official web portal to all federal, state and local government web resources and services.